Strona główna
METAR-TAF:

METAR-TAF

Lotnisko :

Xi'an, Chiny

Port lotniczy Xi’an-Xianyang

Szerokość geograficzna: 34-26N, Długość geograficzna: 108-45E, wysokość: 479 m

Aktualna obserwacja pogody

Raport powstał 43 minut temu, godzina 05:00 UTC
Wiatr 4 kt od wschód, zmienny między północno-północny wschód i wschodnio-południowy wschód
Temperatura 5°C
Wilgotność 38%
Ciśnienie 1025 hPa
Widzialność: 8000 m

METAR: ZLXY 180500Z 08002MPS 030V120 8000 NSC 05/M08 Q1025 NOSIG

czas: 13:43 (05:43 UTC)

Prognoza

Raport powstał 2 godziny i 42 minut temu, godzina 03:01 UTC
Prognoza ważna od 18 godzina 06 UTC do 19 godzina 06 UTC
Wiatr 6 kt od wschodnio-północny wschód
Widzialność: 3000 m
zmętnienie

TAF: ZLXY 180301Z 1806/1906 06003MPS 3000 HZ NSC TX05/1807Z TNM05/23Z

Obserwacja i prognoza pogody dla ponad 4000 lotnisk (raport METAR i TAF).

Dostępne stacje oznaczono żółtymi i czerwonymi punktami na mapie.

Najedź kursorem aby zobaczyć nazwę stacji.

Kliknij aby zobaczyć obserwacje i prognozy pogody.

Aby zmienić mapę: kliknij na zielony przycisk z czarnym krzyżykiem, aby powiększyć; na zielony przycisk z myślnikiem, aby pomniejszyć; na zielone strzałki, aby przejść do map sąsiednich.


METAR-TAF: